Etusivu
METAR-TAF:

METAR-TAF

Lentoasemat :

Sharurah, Saudi-Arabia

Leveyspiiri: 17-28N, Pituuspiiri: 047-07E, korkeus merenpinnasta: 720 m

Tämänhetkinen sää

Tämä raportti tehtiin 59 minuuttia sitten, kello 10.00 UTC
Tuuli 6 kn idästä/kaakosta
Lämpötila 29°C
Kosteus 29%
Ilmanpaine 1016 hPa
Näkyvyys 10 km tai enemmän
ei pilviä alle 1500 m:ssä eikä cumulonimbus-pilviä

METAR: OESH 281000Z 11006KT CAVOK 29/09 Q1016 NOSIG

Aika: 13:59 (10:59 UTC)

Sääennuste

Tämä raportti tehtiin 11 tuntia ja 59 minuuttia sitten, kello 23.00 UTC
Ennuste voimassa 28. päivästä klo 00 UTC - 29. päivään klo 06 UTC
Tuuli 5 kn etelästä
Näkyvyys 10 km tai enemmän
ei pilviä alle 1500 m:ssä eikä cumulonimbus-pilviä
Tulossa
28. päivästä klo 06 UTC - 28. päivään klo 08 UTC
Tuuli 12 kn idästä
Näkyvyys: 7000 m

TAF: OESH 272300Z 2800/2906 19005KT CAVOK BECMG 2806/2808 09012KT 7000 NSC

Säähavainnot ja -ennusteet yli 4000 lentoasemalta (METAR- ja TAF-raportit).

Käytössä olevat sääasemat on merkitty karttaan keltaisilla ja punaisilla pisteillä.

Aseta hiiri pisteen päälle nähdäksesi sääaseman nimen.

Klikkaa sitten nähdäksesi säähavainnot ja -ennusteet.

Kartan vaihtaminen: klikkaa mustalla rastilla varustettuja vihreitä pisteitä, niin voit zoomata sisään; viivalla varustettua vihreää pistettä, niin voit zoomata ulos tai vihreitä nuolia, niin pääset viereisille kartoille.


METAR-TAF: